Time;durP1;ratioP1;P1;durP2;ratioP2;P2;SDS_P1;SDS_P2;PMS_P1;PMS_P2;Temp;Humidity;BMP_temperature;BMP_pressure;BME280_temperature;BME280_humidity;BME280_pressure;Samples;Min_cycle;Max_cycle;Signal;HPM_P1;HPM_P2
2023/05/03 00:02:26;;;;;;;0.90;0.90;;;7.80;99.90;;;;;;5046168;28;20208;-69
2023/05/03 00:04:56;;;;;;;1.40;1.10;;;7.80;99.90;;;;;;5046708;28;20801;-69
2023/05/03 00:07:23;;;;;;;1.10;0.95;;;7.80;99.90;;;;;;5087214;22;20230;-65
2023/05/03 00:09:53;;;;;;;2.08;1.48;;;7.80;99.90;;;;;;5068338;28;20284;-66
2023/05/03 00:12:21;;;;;;;1.23;1.13;;;7.80;99.90;;;;;;5065413;28;20233;-66
2023/05/03 00:14:49;;;;;;;0.82;0.82;;;7.80;99.90;;;;;;5066798;28;20983;-66
2023/05/03 00:17:17;;;;;;;1.17;1.00;;;7.80;99.90;;;;;;5052349;28;20227;-66
2023/05/03 00:19:45;;;;;;;1.23;0.75;;;7.80;99.90;;;;;;5048714;28;20196;-66
2023/05/03 00:22:13;;;;;;;1.20;0.90;;;7.70;99.90;;;;;;5047106;28;20207;-66
2023/05/03 00:24:40;;;;;;;1.05;0.95;;;7.70;99.90;;;;;;5052764;28;20579;-66
2023/05/03 00:27:10;;;;;;;1.20;1.10;;;7.70;99.90;;;;;;5046607;28;20220;-65
2023/05/03 00:29:37;;;;;;;1.02;0.77;;;7.60;99.90;;;;;;5046029;28;20239;-66
2023/05/03 00:32:06;;;;;;;0.80;0.80;;;7.60;99.90;;;;;;5045348;28;20227;-66
2023/05/03 00:34:34;;;;;;;1.30;1.15;;;7.50;99.90;;;;;;5046367;28;20583;-66
2023/05/03 00:37:03;;;;;;;1.00;0.88;;;7.50;99.90;;;;;;5051059;28;20224;-66
2023/05/03 00:39:31;;;;;;;1.30;1.20;;;7.40;99.90;;;;;;5046025;28;20291;-65
2023/05/03 00:42:00;;;;;;;1.33;0.90;;;7.40;99.90;;;;;;5043777;28;20227;-65
2023/05/03 00:44:29;;;;;;;1.10;0.98;;;7.40;99.90;;;;;;5051863;28;20212;-65
2023/05/03 00:46:57;;;;;;;1.35;1.08;;;7.40;99.90;;;;;;5052358;28;20234;-65
2023/05/03 00:49:25;;;;;;;1.13;1.02;;;7.30;99.90;;;;;;5051756;28;20218;-66
2023/05/03 00:51:54;;;;;;;0.88;0.77;;;7.30;99.90;;;;;;5052076;28;20251;-66
2023/05/03 00:54:22;;;;;;;1.42;1.15;;;7.30;99.90;;;;;;5051874;28;20253;-65
2023/05/03 00:56:50;;;;;;;1.13;0.95;;;7.30;99.90;;;;;;5052274;28;20230;-65
2023/05/03 00:59:20;;;;;;;1.08;0.80;;;7.30;99.90;;;;;;5051605;28;20204;-64
2023/05/03 01:01:50;;;;;;;1.52;1.42;;;7.30;99.90;;;;;;5051886;28;20568;-65
2023/05/03 01:04:18;;;;;;;1.77;1.00;;;7.30;99.90;;;;;;5052501;28;20207;-66
2023/05/03 01:06:55;;;;;;;1.40;1.10;;;7.30;99.90;;;;;;5043940;28;20238;-64
2023/05/03 01:09:39;;;;;;;0.80;0.80;;;7.20;99.90;;;;;;5054611;28;20203;-64
2023/05/03 01:12:20;;;;;;;1.40;1.30;;;7.20;99.90;;;;;;5056288;28;20719;-65
2023/05/03 01:14:58;;;;;;;0.80;0.60;;;7.20;99.90;;;;;;5051145;28;20266;-65
2023/05/03 01:17:34;;;;;;;0.90;0.80;;;7.20;99.90;;;;;;5051464;28;20219;-64
2023/05/03 01:20:09;;;;;;;1.05;0.80;;;7.20;99.90;;;;;;5051821;28;20196;-64
2023/05/03 01:22:47;;;;;;;1.92;1.50;;;7.20;99.90;;;;;;5051371;28;20565;-67
2023/05/03 01:25:16;;;;;;;1.90;1.30;;;7.20;99.90;;;;;;5051763;28;20294;-66
2023/05/03 01:27:44;;;;;;;0.90;0.90;;;7.10;99.90;;;;;;5050907;28;20876;-65
2023/05/03 01:30:13;;;;;;;1.00;0.90;;;7.00;99.90;;;;;;5051056;28;20282;-65
2023/05/03 01:32:55;;;;;;;0.90;0.90;;;7.10;99.90;;;;;;5051093;28;20311;-65
2023/05/03 01:35:29;;;;;;;2.15;1.15;;;7.10;99.90;;;;;;5046576;28;20590;-64
2023/05/03 01:37:57;;;;;;;1.50;0.90;;;7.00;99.90;;;;;;5046114;28;20757;-64
2023/05/03 01:40:29;;;;;;;0.95;0.85;;;7.00;99.90;;;;;;5046356;28;20651;-64
2023/05/03 01:43:19;;;;;;;2.50;1.17;;;7.00;99.90;;;;;;5045550;28;20207;-65
2023/05/03 01:45:47;;;;;;;1.17;1.00;;;7.00;99.90;;;;;;5043542;28;20211;-64
2023/05/03 01:48:17;;;;;;;1.70;1.23;;;6.90;99.90;;;;;;5051432;28;20200;-64
2023/05/03 01:50:45;;;;;;;0.98;0.88;;;6.80;99.90;;;;;;5050770;28;20202;-65
2023/05/03 01:53:13;;;;;;;1.17;1.08;;;6.80;99.90;;;;;;5051022;28;20226;-64
2023/05/03 01:55:42;;;;;;;0.77;0.77;;;6.70;99.90;;;;;;5045217;28;20625;-64
2023/05/03 01:58:11;;;;;;;1.08;0.98;;;6.70;99.90;;;;;;5044584;28;20230;-64
2023/05/03 02:00:38;;;;;;;1.40;1.00;;;6.70;99.90;;;;;;5046662;28;20208;-64
2023/05/03 02:03:06;;;;;;;0.80;0.80;;;6.70;99.90;;;;;;5046810;28;20198;-64
2023/05/03 02:05:35;;;;;;;1.58;1.48;;;6.70;99.90;;;;;;5046182;28;20293;-65
2023/05/03 02:08:03;;;;;;;1.52;1.10;;;6.70;99.90;;;;;;5001555;28;20211;-64
2023/05/03 02:10:31;;;;;;;1.35;1.25;;;6.70;99.90;;;;;;5008198;28;20683;-64
2023/05/03 02:13:00;;;;;;;0.80;0.60;;;6.70;99.90;;;;;;5000735;28;20314;-64
2023/05/03 02:15:28;;;;;;;1.25;0.93;;;6.70;99.90;;;;;;5008434;28;20739;-64
2023/05/03 02:17:57;;;;;;;1.15;1.05;;;6.60;99.90;;;;;;5009142;28;20232;-64
2023/05/03 02:20:25;;;;;;;1.75;1.50;;;6.70;99.90;;;;;;5007719;28;20617;-63
2023/05/03 02:22:53;;;;;;;2.05;1.20;;;6.60;99.90;;;;;;5008719;28;20287;-64
2023/05/03 02:25:21;;;;;;;1.23;1.05;;;6.70;99.90;;;;;;5009071;28;20288;-64
2023/05/03 02:27:48;;;;;;;1.77;1.17;;;6.70;99.90;;;;;;5006117;28;21916;-65
2023/05/03 02:30:18;;;;;;;1.40;0.70;;;6.70;99.90;;;;;;5007943;28;20238;-65
2023/05/03 02:32:46;;;;;;;0.90;0.70;;;6.70;99.90;;;;;;5005649;28;20228;-66
2023/05/03 02:35:13;;;;;;;1.05;0.95;;;6.60;99.90;;;;;;5009634;28;20209;-66
2023/05/03 02:37:41;;;;;;;1.63;1.00;;;6.60;99.90;;;;;;5006281;28;20224;-65
2023/05/03 02:40:10;;;;;;;2.22;1.48;;;6.60;99.90;;;;;;5008291;28;20213;-66
2023/05/03 02:42:39;;;;;;;0.95;0.82;;;6.50;99.90;;;;;;5004077;28;20296;-64
2023/05/03 02:45:07;;;;;;;1.00;0.90;;;6.50;99.90;;;;;;5001664;28;20209;-64
2023/05/03 02:47:37;;;;;;;1.85;1.20;;;6.50;99.90;;;;;;5005970;28;20229;-65
2023/05/03 02:50:05;;;;;;;1.00;0.90;;;6.60;99.90;;;;;;5002442;28;20288;-66
2023/05/03 02:52:33;;;;;;;1.33;1.13;;;6.60;99.90;;;;;;5006345;28;20704;-65
2023/05/03 02:55:01;;;;;;;1.15;1.05;;;6.60;99.90;;;;;;5013178;28;20312;-65
2023/05/03 02:57:29;;;;;;;1.00;0.90;;;6.60;99.90;;;;;;5010969;28;20324;-65
2023/05/03 02:59:57;;;;;;;0.82;0.75;;;6.60;99.90;;;;;;5005170;28;20243;-66
2023/05/03 03:02:25;;;;;;;1.10;1.00;;;6.60;99.90;;;;;;5006999;28;20193;-65
2023/05/03 03:04:54;;;;;;;1.50;1.10;;;6.70;99.90;;;;;;5010361;28;20757;-65
2023/05/03 03:07:22;;;;;;;0.85;0.70;;;6.60;99.90;;;;;;5039818;28;20317;-65
2023/05/03 03:09:50;;;;;;;1.25;0.90;;;6.50;99.90;;;;;;5042362;28;20227;-65
2023/05/03 03:12:18;;;;;;;1.42;1.33;;;6.50;99.90;;;;;;5046982;28;20749;-64
2023/05/03 03:14:45;;;;;;;1.63;1.52;;;6.50;99.90;;;;;;5049442;28;20210;-64
2023/05/03 03:17:13;;;;;;;1.50;1.10;;;6.50;99.90;;;;;;5051974;28;20719;-64
2023/05/03 03:19:41;;;;;;;1.05;0.98;;;6.50;99.90;;;;;;5044375;28;20221;-64
2023/05/03 03:22:11;;;;;;;1.70;1.02;;;6.50;99.90;;;;;;5051418;28;20208;-63
2023/05/03 03:24:38;;;;;;;1.10;0.90;;;6.50;99.90;;;;;;5058767;28;20231;-63
2023/05/03 03:27:06;;;;;;;1.20;0.80;;;6.50;99.90;;;;;;5050670;28;20584;-64
2023/05/03 03:29:35;;;;;;;2.55;1.05;;;6.40;99.90;;;;;;5048544;28;20215;-63
2023/05/03 03:32:03;;;;;;;1.40;1.30;;;6.50;99.90;;;;;;5051762;28;20207;-64
2023/05/03 03:34:31;;;;;;;1.95;1.30;;;6.40;99.90;;;;;;5044054;28;20294;-63
2023/05/03 03:36:59;;;;;;;1.42;1.02;;;6.40;99.90;;;;;;5050931;28;20308;-64
2023/05/03 03:39:29;;;;;;;1.23;1.00;;;6.50;99.90;;;;;;5045632;28;20211;-64
2023/05/03 03:41:56;;;;;;;2.15;0.93;;;6.40;99.90;;;;;;5045913;28;20890;-64
2023/05/03 03:44:24;;;;;;;0.80;0.80;;;6.40;99.90;;;;;;5051978;28;20588;-64
2023/05/03 03:46:52;;;;;;;1.20;1.10;;;6.40;99.90;;;;;;5053260;28;20307;-64
2023/05/03 03:49:20;;;;;;;1.08;0.93;;;6.40;99.90;;;;;;5053432;28;20206;-64
2023/05/03 03:51:48;;;;;;;0.80;0.73;;;6.40;99.90;;;;;;5053084;28;20227;-63
2023/05/03 03:54:16;;;;;;;0.95;0.85;;;6.30;99.90;;;;;;5047928;28;20218;-65
2023/05/03 03:56:45;;;;;;;1.48;0.85;;;6.30;99.90;;;;;;5050801;28;20230;-64
2023/05/03 03:59:13;;;;;;;1.73;1.50;;;6.30;99.90;;;;;;5045886;28;20329;-63
2023/05/03 04:01:41;;;;;;;0.70;0.60;;;6.20;99.90;;;;;;5046487;28;20667;-64
2023/05/03 04:04:09;;;;;;;1.20;1.10;;;6.20;99.90;;;;;;5047625;28;20207;-65
2023/05/03 04:06:37;;;;;;;1.40;1.23;;;6.20;99.90;;;;;;5048073;28;20828;-63
2023/05/03 04:09:05;;;;;;;1.95;0.95;;;6.20;99.90;;;;;;5046829;28;20207;-63
2023/05/03 04:11:32;;;;;;;0.93;0.80;;;6.20;99.90;;;;;;5049305;28;20286;-63
2023/05/03 04:14:03;;;;;;;1.00;0.80;;;6.10;99.90;;;;;;5048455;28;20648;-64
2023/05/03 04:16:30;;;;;;;2.28;0.93;;;6.10;99.90;;;;;;5043922;28;20316;-64
2023/05/03 04:18:58;;;;;;;0.90;0.90;;;6.10;99.90;;;;;;5041298;28;20242;-64
2023/05/03 04:21:27;;;;;;;1.40;1.30;;;6.10;99.90;;;;;;5047857;28;20219;-64
2023/05/03 04:23:55;;;;;;;2.20;0.90;;;6.10;99.90;;;;;;5045471;28;20553;-63
2023/05/03 04:26:23;;;;;;;1.00;0.90;;;6.10;99.90;;;;;;5050037;28;20290;-68
2023/05/03 04:28:59;;;;;;;1.73;1.00;;;6.10;99.90;;;;;;5044457;28;20214;-65
2023/05/03 04:31:28;;;;;;;1.30;1.20;;;6.10;99.90;;;;;;5048327;28;20215;-64
2023/05/03 04:33:56;;;;;;;1.00;0.90;;;6.10;99.90;;;;;;5044115;28;20227;-64
2023/05/03 04:36:25;;;;;;;0.98;0.98;;;6.10;99.90;;;;;;5048015;28;20223;-64
2023/05/03 04:38:53;;;;;;;1.25;1.00;;;6.20;99.90;;;;;;5044355;28;20203;-65
2023/05/03 04:41:21;;;;;;;1.92;1.25;;;6.20;99.90;;;;;;5047800;28;20227;-64
2023/05/03 04:43:49;;;;;;;1.08;0.95;;;6.20;99.90;;;;;;5049489;28;20207;-64
2023/05/03 04:46:17;;;;;;;1.15;0.70;;;6.30;99.90;;;;;;5043182;28;20786;-64
2023/05/03 04:48:46;;;;;;;1.17;1.05;;;6.40;99.90;;;;;;5045326;28;20697;-65
2023/05/03 04:51:14;;;;;;;1.40;1.15;;;6.40;99.90;;;;;;5043474;28;20623;-64
2023/05/03 04:53:42;;;;;;;1.30;1.15;;;6.40;99.90;;;;;;5048714;28;20246;-65
2023/05/03 04:56:10;;;;;;;1.35;1.10;;;6.50;99.90;;;;;;5046902;28;20233;-65
2023/05/03 04:58:38;;;;;;;1.35;1.25;;;6.60;99.90;;;;;;5044725;28;21248;-64
2023/05/03 05:01:06;;;;;;;1.35;1.25;;;6.70;99.90;;;;;;5043140;28;20227;-64
2023/05/03 05:03:34;;;;;;;0.80;0.80;;;6.80;99.90;;;;;;5046999;28;20619;-64
2023/05/03 05:06:05;;;;;;;1.00;0.90;;;6.90;99.90;;;;;;5048116;28;20245;-64
2023/05/03 05:08:33;;;;;;;1.10;0.90;;;6.90;99.90;;;;;;5046858;28;20272;-64
2023/05/03 05:11:02;;;;;;;3.85;1.30;;;7.00;99.90;;;;;;5038804;28;20242;-64
2023/05/03 05:13:30;;;;;;;1.83;1.05;;;7.10;99.90;;;;;;5044702;28;20244;-63
2023/05/03 05:15:58;;;;;;;1.45;1.20;;;7.10;99.90;;;;;;5045244;28;20298;-64
2023/05/03 05:18:26;;;;;;;1.80;1.27;;;7.20;99.90;;;;;;5042544;28;20223;-64
2023/05/03 05:20:54;;;;;;;1.95;0.98;;;7.30;99.90;;;;;;5047772;28;20735;-65
2023/05/03 05:23:23;;;;;;;1.38;1.25;;;7.30;99.90;;;;;;5045350;28;20223;-64
2023/05/03 05:25:52;;;;;;;2.15;1.52;;;7.40;99.90;;;;;;5046059;28;20753;-64
2023/05/03 05:28:20;;;;;;;1.42;1.33;;;7.40;99.90;;;;;;5048220;28;20204;-64
2023/05/03 05:30:48;;;;;;;1.58;1.40;;;7.50;99.90;;;;;;5041540;28;20203;-64
2023/05/03 05:33:16;;;;;;;1.33;1.23;;;7.60;99.90;;;;;;5046247;28;20219;-64
2023/05/03 05:35:48;;;;;;;1.88;0.90;;;7.70;99.90;;;;;;5048164;28;20221;-63
2023/05/03 05:38:17;;;;;;;1.50;1.13;;;7.90;99.90;;;;;;5046014;28;20214;-64
2023/05/03 05:40:46;;;;;;;1.50;1.40;;;8.00;99.90;;;;;;5046703;28;20207;-63
2023/05/03 05:43:14;;;;;;;1.42;0.80;;;8.10;99.90;;;;;;5041292;28;20604;-64
2023/05/03 05:45:42;;;;;;;1.35;1.25;;;8.20;99.90;;;;;;5044164;28;20216;-64
2023/05/03 05:48:10;;;;;;;1.30;1.00;;;8.30;99.90;;;;;;5046943;28;20803;-64
2023/05/03 05:50:37;;;;;;;0.90;0.75;;;8.30;99.90;;;;;;5042315;28;20208;-63
2023/05/03 05:53:07;;;;;;;2.05;1.00;;;8.30;99.90;;;;;;5047066;28;20200;-64
2023/05/03 05:55:35;;;;;;;1.25;0.80;;;8.40;99.90;;;;;;5044926;28;20225;-63
2023/05/03 05:58:05;;;;;;;1.13;1.02;;;8.60;99.90;;;;;;5043275;28;20283;-64
2023/05/03 06:00:33;;;;;;;1.77;1.30;;;8.60;99.90;;;;;;5045342;28;20215;-63
2023/05/03 06:03:01;;;;;;;0.85;0.68;;;8.70;99.90;;;;;;5039332;28;20283;-64
2023/05/03 06:05:29;;;;;;;2.67;1.10;;;8.70;99.90;;;;;;5045783;28;20859;-64
2023/05/03 06:07:57;;;;;;;1.08;1.00;;;8.80;99.90;;;;;;5144148;22;20247;-68
2023/05/03 06:10:25;;;;;;;2.55;1.23;;;8.90;99.90;;;;;;5025425;28;20235;-71
2023/05/03 06:12:53;;;;;;;1.20;1.10;;;9.00;99.90;;;;;;5025043;28;20227;-69
2023/05/03 06:15:22;;;;;;;2.63;1.17;;;9.20;99.90;;;;;;5026350;28;20928;-70
2023/05/03 06:17:50;;;;;;;1.00;0.82;;;9.20;99.90;;;;;;5021724;28;20224;-70
2023/05/03 06:20:18;;;;;;;0.82;0.60;;;9.20;99.90;;;;;;5025310;28;20892;-72
2023/05/03 06:22:46;;;;;;;1.00;0.80;;;9.30;99.90;;;;;;5022501;28;20232;-70
2023/05/03 06:25:14;;;;;;;1.23;0.90;;;9.40;99.90;;;;;;5018785;28;20228;-70
2023/05/03 06:27:44;;;;;;;1.73;0.90;;;9.40;99.90;;;;;;5022240;28;20308;-70
2023/05/03 06:30:13;;;;;;;0.70;0.70;;;9.60;99.90;;;;;;5028344;28;20205;-70
2023/05/03 06:32:43;;;;;;;0.93;0.82;;;9.70;99.90;;;;;;5026718;28;20251;-69
2023/05/03 06:35:11;;;;;;;1.10;1.00;;;9.70;99.90;;;;;;5029860;28;20220;-71
2023/05/03 06:37:39;;;;;;;0.90;0.77;;;9.70;99.90;;;;;;5030355;28;20228;-70
2023/05/03 06:40:08;;;;;;;1.00;0.90;;;9.70;99.90;;;;;;5028667;28;20275;-70
2023/05/03 06:42:36;;;;;;;0.82;0.70;;;9.80;99.90;;;;;;5026196;28;20208;-70
2023/05/03 06:45:04;;;;;;;1.38;0.93;;;9.80;99.90;;;;;;5029386;28;20201;-70
2023/05/03 06:47:32;;;;;;;0.98;0.82;;;9.90;99.90;;;;;;5024770;28;20311;-70
2023/05/03 06:50:02;;;;;;;1.00;0.80;;;10.00;99.90;;;;;;5023223;28;20569;-71
2023/05/03 06:52:30;;;;;;;1.42;1.13;;;9.90;99.90;;;;;;5030097;28;20258;-69
2023/05/03 06:54:58;;;;;;;1.65;0.73;;;9.90;99.90;;;;;;5014868;28;20245;-70
2023/05/03 06:57:26;;;;;;;1.00;0.90;;;10.10;99.90;;;;;;5021554;28;20244;-69
2023/05/03 06:59:55;;;;;;;1.50;0.90;;;10.30;99.90;;;;;;5024306;28;20581;-70
2023/05/03 07:02:24;;;;;;;0.80;0.70;;;10.30;99.90;;;;;;5021361;28;20215;-70
2023/05/03 07:04:52;;;;;;;0.82;0.70;;;10.30;99.90;;;;;;5027210;28;20205;-70
2023/05/03 07:07:21;;;;;;;2.55;0.70;;;10.20;99.90;;;;;;5028614;28;20229;-70
2023/05/03 07:09:50;;;;;;;1.30;1.17;;;10.00;99.90;;;;;;5022252;28;20235;-70
2023/05/03 07:12:17;;;;;;;1.10;1.00;;;10.00;99.90;;;;;;5029879;28;20314;-70
2023/05/03 07:14:46;;;;;;;0.60;0.60;;;10.00;99.90;;;;;;5028958;28;20611;-70
2023/05/03 07:17:14;;;;;;;1.20;0.73;;;10.20;99.90;;;;;;5027053;28;20224;-70
2023/05/03 07:19:41;;;;;;;1.23;1.00;;;10.40;99.90;;;;;;5027652;28;20236;-70
2023/05/03 07:22:09;;;;;;;1.10;0.80;;;10.40;99.90;;;;;;5021928;28;20288;-69
2023/05/03 07:24:39;;;;;;;1.10;0.52;;;10.50;99.90;;;;;;5025151;28;20213;-69
2023/05/03 07:27:07;;;;;;;1.08;0.98;;;10.70;99.90;;;;;;5023949;28;20229;-71
2023/05/03 07:29:35;;;;;;;1.13;1.00;;;10.80;99.90;;;;;;5023301;28;20275;-70
2023/05/03 07:32:03;;;;;;;2.35;1.30;;;11.00;99.90;;;;;;5025183;28;20291;-70
2023/05/03 07:34:31;;;;;;;1.33;1.15;;;11.20;99.90;;;;;;5024447;28;20225;-70
2023/05/03 07:36:59;;;;;;;1.42;1.20;;;11.40;99.90;;;;;;5027236;28;20228;-71
2023/05/03 07:39:27;;;;;;;0.82;0.70;;;11.50;99.90;;;;;;5024820;28;20699;-70
2023/05/03 07:41:56;;;;;;;1.00;0.90;;;11.70;99.90;;;;;;5025991;28;20200;-70
2023/05/03 07:44:24;;;;;;;1.00;0.80;;;11.80;99.90;;;;;;5023017;28;20201;-70
2023/05/03 07:46:52;;;;;;;0.90;0.80;;;11.80;99.90;;;;;;5029086;28;20639;-70
2023/05/03 07:49:19;;;;;;;0.80;0.60;;;12.00;99.90;;;;;;5023337;28;20288;-70
2023/05/03 07:51:47;;;;;;;0.70;0.50;;;11.90;99.90;;;;;;5025391;28;20204;-70
2023/05/03 07:54:15;;;;;;;0.70;0.60;;;12.10;99.90;;;;;;5025479;28;20297;-70
2023/05/03 07:56:43;;;;;;;0.98;0.80;;;12.10;99.90;;;;;;5023416;28;20204;-70
2023/05/03 07:59:12;;;;;;;0.60;0.50;;;12.00;99.90;;;;;;5027722;28;20209;-70
2023/05/03 08:01:40;;;;;;;1.17;1.08;;;12.10;99.90;;;;;;5027093;28;20775;-70
2023/05/03 08:04:08;;;;;;;0.88;0.85;;;12.30;99.90;;;;;;5026502;28;20292;-69
2023/05/03 08:06:37;;;;;;;0.88;0.68;;;12.50;99.90;;;;;;5028463;28;20208;-69
2023/05/03 08:09:05;;;;;;;0.60;0.50;;;12.50;99.90;;;;;;5025162;28;20253;-69
2023/05/03 08:11:33;;;;;;;1.10;0.98;;;12.70;99.90;;;;;;5022507;28;20638;-69
2023/05/03 08:14:01;;;;;;;1.77;1.45;;;12.90;99.90;;;;;;5024536;28;20258;-70
2023/05/03 08:16:30;;;;;;;0.68;0.65;;;13.00;99.90;;;;;;5025229;28;20270;-68
2023/05/03 08:18:58;;;;;;;0.82;0.70;;;13.20;99.90;;;;;;5018477;28;20699;-69
2023/05/03 08:21:27;;;;;;;0.80;0.60;;;13.30;99.90;;;;;;5021412;28;20291;-69
2023/05/03 08:23:55;;;;;;;0.60;0.52;;;13.40;99.90;;;;;;5027232;28;20199;-68
2023/05/03 08:26:27;;;;;;;0.60;0.43;;;13.50;99.90;;;;;;5023391;28;20239;-69
2023/05/03 08:28:55;;;;;;;1.00;0.80;;;13.50;99.90;;;;;;5024078;28;20224;-69
2023/05/03 08:31:23;;;;;;;0.70;0.60;;;13.80;99.90;;;;;;5022793;28;20319;-68
2023/05/03 08:33:52;;;;;;;2.00;1.00;;;13.90;99.90;;;;;;5026829;28;20219;-68
2023/05/03 08:36:20;;;;;;;4.40;2.10;;;14.10;99.90;;;;;;5025746;28;20224;-69
2023/05/03 08:38:49;;;;;;;1.35;0.95;;;14.30;99.90;;;;;;5021229;28;20229;-67
2023/05/03 08:41:29;;;;;;;1.17;0.70;;;14.50;99.90;;;;;;5023473;28;20232;-69
2023/05/03 08:44:00;;;;;;;0.60;0.50;;;14.40;99.90;;;;;;5022713;28;20687;-69
2023/05/03 08:46:28;;;;;;;0.90;0.75;;;14.60;99.90;;;;;;5025138;28;20222;-68
2023/05/03 08:48:59;;;;;;;0.80;0.70;;;14.60;99.90;;;;;;5023276;28;20237;-69
2023/05/03 08:51:27;;;;;;;0.70;0.60;;;14.80;99.90;;;;;;5024578;28;20255;-69
2023/05/03 08:53:55;;;;;;;0.60;0.60;;;15.00;99.90;;;;;;5025303;28;20865;-69
2023/05/03 08:56:32;;;;;;;1.95;0.90;;;14.90;99.90;;;;;;5026356;28;20976;-69
2023/05/03 08:59:06;;;;;;;0.70;0.70;;;15.00;99.90;;;;;;5023620;28;20236;-68
2023/05/03 09:01:35;;;;;;;0.80;0.50;;;15.20;99.90;;;;;;5025489;28;20208;-68
2023/05/03 09:04:05;;;;;;;1.30;1.20;;;15.20;99.80;;;;;;5021622;28;20209;-68
2023/05/03 09:06:35;;;;;;;0.90;0.80;;;15.20;99.90;;;;;;5023682;28;20211;-69
2023/05/03 09:09:06;;;;;;;0.70;0.60;;;15.30;99.90;;;;;;5025437;28;20341;-69
2023/05/03 09:11:35;;;;;;;0.60;0.52;;;15.20;99.80;;;;;;5027043;28;20224;-69
2023/05/03 09:14:10;;;;;;;0.98;0.57;;;15.20;99.90;;;;;;5025037;28;20283;-68
2023/05/03 09:16:39;;;;;;;0.82;0.50;;;15.30;99.60;;;;;;5023710;28;20733;-69
2023/05/03 09:19:11;;;;;;;1.00;1.00;;;15.60;99.50;;;;;;5022825;28;20251;-67
2023/05/03 09:21:39;;;;;;;0.80;0.60;;;15.40;99.20;;;;;;5024251;28;20745;-69
2023/05/03 09:24:14;;;;;;;1.08;0.98;;;15.60;99.90;;;;;;5021679;28;20299;-68
2023/05/03 09:26:43;;;;;;;1.02;0.60;;;15.60;99.70;;;;;;5025942;28;20282;-68
2023/05/03 09:29:26;;;;;;;4.95;0.80;;;15.50;99.90;;;;;;5026371;28;20220;-68
2023/05/03 09:31:59;;;;;;;0.70;0.57;;;15.70;99.90;;;;;;5021432;28;20239;-68
2023/05/03 09:34:28;;;;;;;1.13;1.05;;;15.70;99.90;;;;;;5022830;28;20567;-69
2023/05/03 09:36:56;;;;;;;0.60;0.50;;;15.90;99.90;;;;;;5023087;28;20695;-70
2023/05/03 09:39:24;;;;;;;0.60;0.50;;;16.00;99.90;;;;;;5024901;28;20658;-69
2023/05/03 09:41:53;;;;;;;0.65;0.57;;;16.20;99.70;;;;;;5027482;28;20288;-68
2023/05/03 09:44:40;;;;;;;0.70;0.63;;;16.30;99.70;;;;;;5023852;28;20731;-69
2023/05/03 09:47:08;;;;;;;0.60;0.50;;;16.40;99.10;;;;;;5029564;28;20303;-68
2023/05/03 09:49:38;;;;;;;0.60;0.40;;;16.60;98.30;;;;;;5023947;28;20208;-69
2023/05/03 09:52:07;;;;;;;0.77;0.60;;;16.80;98.50;;;;;;5025652;28;20296;-69
2023/05/03 09:54:36;;;;;;;0.80;0.68;;;17.00;98.00;;;;;;5026788;28;20262;-68
2023/05/03 09:57:06;;;;;;;0.60;0.40;;;17.00;98.40;;;;;;5027903;28;20220;-68
2023/05/03 09:59:36;;;;;;;2.25;1.00;;;17.20;99.00;;;;;;5019972;28;20208;-69
2023/05/03 10:02:07;;;;;;;0.70;0.60;;;17.10;97.30;;;;;;5023840;28;20560;-68
2023/05/03 10:04:43;;;;;;;0.80;0.77;;;17.10;98.00;;;;;;5023653;28;20208;-68
2023/05/03 10:07:14;;;;;;;1.13;1.02;;;17.00;98.40;;;;;;5021925;28;20304;-69
2023/05/03 10:09:44;;;;;;;0.95;0.65;;;17.20;97.30;;;;;;5025247;28;20228;-68
2023/05/03 10:12:15;;;;;;;0.70;0.70;;;17.30;97.70;;;;;;5030531;28;20263;-69
2023/05/03 10:14:45;;;;;;;1.58;0.50;;;17.50;97.30;;;;;;5022646;28;20254;-69
2023/05/03 10:17:18;;;;;;;0.98;0.88;;;17.70;96.70;;;;;;5030102;28;20605;-68
2023/05/03 10:19:55;;;;;;;1.10;0.80;;;17.70;96.20;;;;;;5028680;28;20213;-68
2023/05/03 10:22:23;;;;;;;2.00;0.80;;;17.90;95.40;;;;;;5019190;28;20304;-67
2023/05/03 10:25:10;;;;;;;0.57;0.43;;;18.00;95.70;;;;;;5026682;28;20323;-70
2023/05/03 10:27:51;;;;;;;0.70;0.70;;;18.20;97.40;;;;;;5022273;28;20302;-69
2023/05/03 10:30:31;;;;;;;0.90;0.80;;;18.40;96.50;;;;;;5023917;28;20686;-69
2023/05/03 10:32:59;;;;;;;0.70;0.60;;;18.50;95.50;;;;;;5024984;28;20284;-70
2023/05/03 10:35:30;;;;;;;0.60;0.50;;;18.70;94.40;;;;;;5025335;28;20208;-70
2023/05/03 10:37:58;;;;;;;0.63;0.60;;;18.60;95.40;;;;;;5023813;28;20361;-68
2023/05/03 10:40:41;;;;;;;0.68;0.60;;;18.60;95.20;;;;;;5026901;28;20228;-70
2023/05/03 10:43:45;;;;;;;0.60;0.50;;;18.70;95.40;;;;;;5020364;28;20368;-69
2023/05/03 10:46:34;;;;;;;0.70;0.70;;;18.30;95.00;;;;;;5022372;28;20607;-69
2023/05/03 10:49:22;;;;;;;0.60;0.50;;;18.40;94.40;;;;;;5026173;28;20278;-70
2023/05/03 10:51:50;;;;;;;0.80;0.70;;;18.70;94.90;;;;;;5026867;28;20637;-70
2023/05/03 10:54:18;;;;;;;0.60;0.50;;;18.90;93.50;;;;;;5022034;28;20209;-69
2023/05/03 10:56:55;;;;;;;0.88;0.82;;;19.30;94.00;;;;;;5025660;28;20223;-69
2023/05/03 10:59:25;;;;;;;0.70;0.70;;;19.40;92.90;;;;;;5022681;28;20205;-70
2023/05/03 11:01:53;;;;;;;0.60;0.60;;;19.50;92.70;;;;;;5024950;28;20300;-69
2023/05/03 11:04:38;;;;;;;0.80;0.63;;;19.40;93.20;;;;;;5023652;28;20209;-70
2023/05/03 11:07:06;;;;;;;0.73;0.60;;;19.40;90.70;;;;;;5023980;28;20816;-70
2023/05/03 11:09:34;;;;;;;0.98;0.98;;;19.30;91.30;;;;;;5021150;28;20651;-70
2023/05/03 11:12:07;;;;;;;0.70;0.50;;;19.50;91.80;;;;;;5024621;28;20322;-69
2023/05/03 11:14:38;;;;;;;0.70;0.60;;;19.90;91.30;;;;;;5023828;28;20205;-70
2023/05/03 11:17:06;;;;;;;0.70;0.52;;;20.50;90.80;;;;;;5025712;28;20634;-70
2023/05/03 11:19:34;;;;;;;1.00;0.75;;;20.30;87.60;;;;;;5028358;28;20292;-70
2023/05/03 11:22:02;;;;;;;0.60;0.60;;;20.30;88.70;;;;;;5028904;28;20298;-70
2023/05/03 11:24:30;;;;;;;0.88;0.60;;;20.10;88.70;;;;;;5028686;28;20219;-70
2023/05/03 11:26:57;;;;;;;0.80;0.80;;;20.10;87.30;;;;;;5030335;28;20267;-69
2023/05/03 11:29:26;;;;;;;0.60;0.50;;;20.00;85.00;;;;;;5027339;28;20221;-70
2023/05/03 11:31:56;;;;;;;0.63;0.60;;;20.10;86.00;;;;;;5030034;28;20205;-70
2023/05/03 11:34:24;;;;;;;0.63;0.40;;;20.10;87.80;;;;;;5027916;28;20212;-70
2023/05/03 11:36:52;;;;;;;1.38;0.90;;;20.20;87.70;;;;;;5026486;28;20218;-70
2023/05/03 11:39:20;;;;;;;0.60;0.57;;;20.50;87.40;;;;;;5028777;28;20281;-70
2023/05/03 11:42:03;;;;;;;0.82;0.80;;;20.30;85.10;;;;;;5028019;28;20201;-70
2023/05/03 11:44:31;;;;;;;0.60;0.50;;;20.30;85.30;;;;;;5025636;28;20218;-71
2023/05/03 11:47:00;;;;;;;0.88;0.70;;;20.50;85.50;;;;;;5025953;28;20226;-68
2023/05/03 11:49:28;;;;;;;1.25;0.60;;;20.70;82.70;;;;;;5027454;28;20209;-69
2023/05/03 11:51:57;;;;;;;1.50;0.93;;;20.60;81.70;;;;;;5026949;28;20735;-70
2023/05/03 11:54:26;;;;;;;0.75;0.63;;;20.40;80.50;;;;;;5026148;28;20207;-69
2023/05/03 11:56:58;;;;;;;0.73;0.57;;;20.70;82.10;;;;;;5025599;28;20229;-71
2023/05/03 11:59:37;;;;;;;0.95;0.60;;;20.90;79.30;;;;;;5023702;28;20217;-70
2023/05/03 12:02:09;;;;;;;0.60;0.50;;;20.80;77.60;;;;;;5029786;28;20201;-70
2023/05/03 12:04:39;;;;;;;0.60;0.50;;;20.90;79.50;;;;;;5033811;28;20205;-70
2023/05/03 12:07:09;;;;;;;1.27;0.70;;;20.70;78.20;;;;;;5028472;28;20309;-70
2023/05/03 12:09:38;;;;;;;0.88;0.60;;;20.90;78.60;;;;;;5029788;28;20314;-70
2023/05/03 12:12:08;;;;;;;0.98;0.70;;;20.70;76.40;;;;;;5029132;28;20201;-70
2023/05/03 12:14:59;;;;;;;0.60;0.50;;;20.90;77.80;;;;;;5023312;28;20585;-70
2023/05/03 12:17:35;;;;;;;0.50;0.38;;;21.10;77.20;;;;;;5027271;28;20619;-70
2023/05/03 12:20:19;;;;;;;0.60;0.55;;;21.30;75.50;;;;;;5020309;28;20213;-70
2023/05/03 12:22:51;;;;;;;1.15;0.50;;;21.30;76.70;;;;;;5025367;28;20300;-70
2023/05/03 12:25:24;;;;;;;0.60;0.50;;;21.50;75.90;;;;;;5024762;28;21768;-69
2023/05/03 12:27:56;;;;;;;1.20;1.05;;;21.50;75.60;;;;;;5025170;28;20236;-70
2023/05/03 12:30:44;;;;;;;1.08;0.75;;;21.60;76.30;;;;;;5023173;28;20214;-70
2023/05/03 12:33:17;;;;;;;0.80;0.70;;;21.70;73.50;;;;;;5024725;28;20220;-70
2023/05/03 12:35:49;;;;;;;0.60;0.40;;;22.10;75.60;;;;;;5028717;28;20206;-69
2023/05/03 12:38:21;;;;;;;0.68;0.57;;;22.70;74.20;;;;;;5025647;28;20287;-70
2023/05/03 12:40:51;;;;;;;0.60;0.50;;;22.50;69.70;;;;;;5027064;28;20214;-70
2023/05/03 12:43:20;;;;;;;0.60;0.50;;;23.10;71.60;;;;;;5024821;28;20203;-70
2023/05/03 12:45:48;;;;;;;0.70;0.50;;;22.60;71.50;;;;;;5027483;28;20209;-70
2023/05/03 12:48:37;;;;;;;0.80;0.70;;;22.30;72.50;;;;;;5026833;28;20232;-70
2023/05/03 12:51:05;;;;;;;0.60;0.40;;;22.30;69.50;;;;;;5021117;28;20688;-70
2023/05/03 12:53:48;;;;;;;1.63;0.70;;;22.30;70.50;;;;;;5025129;28;20209;-70
2023/05/03 12:56:21;;;;;;;0.60;0.50;;;22.40;71.40;;;;;;5025477;28;20222;-70
2023/05/03 12:58:52;;;;;;;1.05;0.60;;;22.30;71.00;;;;;;5023645;28;20291;-70
2023/05/03 13:01:40;;;;;;;0.60;0.50;;;22.50;72.30;;;;;;5024582;28;20206;-71
2023/05/03 13:04:13;;;;;;;2.05;0.68;;;22.90;71.00;;;;;;5023019;28;20206;-70
2023/05/03 13:06:45;;;;;;;0.60;0.50;;;22.60;71.40;;;;;;5026975;28;20206;-72
2023/05/03 13:09:15;;;;;;;0.60;0.55;;;22.80;72.30;;;;;;5021787;28;20708;-70